Airfield :
LOGIN :

Register | Disclaimer

   EN    FR    IT 

 










Legend :    VFR   Marginal VFR   IFR   Intensive IFR   Very Intensive IFR
Visi :
Ceiling :
>= 8 km
>= 3000ft
5 to 8 km
1000 to 3000 ft
1500m to 5 km
500 to 1000 ft
800 to 1500m
200 to 500 ft
< 800m
< 200 ft
Symbols :   Thunderstorms  Fog  Heavy snow  Heavy precipitations  Wind > 20 kt
SIGMETs :     Misc.  Thunderstorms  Icing  Turbulence  Mountain Waves  Volcanic Ashes






- Airport Elevation : 1247 ft
- IATA code : PRG


LKPR - Praha Ruzyne

CURRENT METAR :
  • 061800Z 21009KT 150V230 CAVOK 00/M04 Q1014 NOSIG

EXPIRED METARs :
  • 061730Z 21008KT CAVOK 01/M04 Q1014 NOSIG
  • 061700Z 20008KT 150V230 CAVOK 01/M04 Q1014 NOSIG
  • 061630Z 20009KT CAVOK 02/M04 Q1014 NOSIG
  • 061600Z 19011KT CAVOK 02/M04 Q1014 NOSIG
  • 061530Z 19009KT 170V230 CAVOK 02/M05 Q1014 NOSIG

TAF TAF LKPR
Valid from the 06 at 18:00 until the 08 at 00:00 UTC


061700Z 0618/0800 20010KT CAVOK
BECMG 0701/0703 22014KT 9999 BKN017
TEMPO 0703/0706 23020G38KT 6000 RA SCT009 BKN012
BECMG 0706/0708 24014KT BKN027
TEMPO 0710/0720 25015G30KT 7000 SHRA BKN016



MET'MAP, your aeronautical weather chart ! - Copyright ORBIFLY December 2007 - Disclaimer

ORBIFLY MET'MAP TEAM :

Programming & Development : Alexandra Zaïnal
Concept & original design : Baudouin d'Aumeries
Assistance for programming : Marc-Olivier Méhu
Technical & hardware support : Manuel Goepfert

Contact : metmap@orbifly.com




SOURCES & CREDITS :

   NOAA